sensor_id;sensor_type;location;lat;lon;timestamp;temperature;humidity
26803;DHT22;14378;51.796;5.808;2023-04-25T00:05:59;7.60;99.90
26803;DHT22;14378;51.796;5.808;2023-04-25T00:08:04;7.60;99.90
26803;DHT22;14378;51.796;5.808;2023-04-25T00:10:06;7.60;99.90
26803;DHT22;14378;51.796;5.808;2023-04-25T00:12:07;7.60;99.90
26803;DHT22;14378;51.796;5.808;2023-04-25T00:14:08;7.60;99.90
26803;DHT22;14378;51.796;5.808;2023-04-25T00:16:11;7.60;99.90
26803;DHT22;14378;51.796;5.808;2023-04-25T00:18:14;7.60;99.90
26803;DHT22;14378;51.796;5.808;2023-04-25T00:20:17;7.60;99.90
26803;DHT22;14378;51.796;5.808;2023-04-25T00:22:19;7.60;99.90
26803;DHT22;14378;51.796;5.808;2023-04-25T00:24:20;7.60;99.90
26803;DHT22;14378;51.796;5.808;2023-04-25T00:26:21;7.60;99.90
26803;DHT22;14378;51.796;5.808;2023-04-25T00:28:22;7.50;99.90
26803;DHT22;14378;51.796;5.808;2023-04-25T00:30:23;7.50;99.90
26803;DHT22;14378;51.796;5.808;2023-04-25T00:32:24;7.50;99.90
26803;DHT22;14378;51.796;5.808;2023-04-25T00:34:25;7.40;99.90
26803;DHT22;14378;51.796;5.808;2023-04-25T00:36:26;7.40;99.90
26803;DHT22;14378;51.796;5.808;2023-04-25T00:38:28;7.50;99.90
26803;DHT22;14378;51.796;5.808;2023-04-25T00:40:32;7.40;99.90
26803;DHT22;14378;51.796;5.808;2023-04-25T00:42:34;7.40;99.90
26803;DHT22;14378;51.796;5.808;2023-04-25T00:44:37;7.40;99.90
26803;DHT22;14378;51.796;5.808;2023-04-25T00:46:39;7.40;99.90
26803;DHT22;14378;51.796;5.808;2023-04-25T00:48:40;7.40;99.90
26803;DHT22;14378;51.796;5.808;2023-04-25T00:50:54;7.50;99.90
26803;DHT22;14378;51.796;5.808;2023-04-25T00:52:55;7.50;99.90
26803;DHT22;14378;51.796;5.808;2023-04-25T00:54:56;7.50;99.90
26803;DHT22;14378;51.796;5.808;2023-04-25T00:56:58;7.50;99.90
26803;DHT22;14378;51.796;5.808;2023-04-25T00:58:59;7.50;99.90
26803;DHT22;14378;51.796;5.808;2023-04-25T01:01:01;7.50;99.90
26803;DHT22;14378;51.796;5.808;2023-04-25T01:03:02;7.50;99.90
26803;DHT22;14378;51.796;5.808;2023-04-25T01:05:07;7.50;99.90
26803;DHT22;14378;51.796;5.808;2023-04-25T01:07:08;7.50;99.90
26803;DHT22;14378;51.796;5.808;2023-04-25T01:09:10;7.50;99.90
26803;DHT22;14378;51.796;5.808;2023-04-25T01:11:11;7.50;99.90
26803;DHT22;14378;51.796;5.808;2023-04-25T01:13:13;7.50;99.90
26803;DHT22;14378;51.796;5.808;2023-04-25T01:15:18;7.50;99.90
26803;DHT22;14378;51.796;5.808;2023-04-25T01:17:20;7.50;99.90
26803;DHT22;14378;51.796;5.808;2023-04-25T01:19:22;7.40;99.90
26803;DHT22;14378;51.796;5.808;2023-04-25T01:21:25;7.40;99.90
26803;DHT22;14378;51.796;5.808;2023-04-25T01:23:28;7.40;99.90
26803;DHT22;14378;51.796;5.808;2023-04-25T01:25:30;7.40;99.90
26803;DHT22;14378;51.796;5.808;2023-04-25T01:27:32;7.50;99.90
26803;DHT22;14378;51.796;5.808;2023-04-25T01:29:33;7.50;99.90
26803;DHT22;14378;51.796;5.808;2023-04-25T01:31:36;7.50;99.90
26803;DHT22;14378;51.796;5.808;2023-04-25T01:33:39;7.50;99.90
26803;DHT22;14378;51.796;5.808;2023-04-25T01:35:40;7.50;99.90
26803;DHT22;14378;51.796;5.808;2023-04-25T01:37:45;7.50;99.90
26803;DHT22;14378;51.796;5.808;2023-04-25T01:39:48;7.50;99.90
26803;DHT22;14378;51.796;5.808;2023-04-25T01:41:51;7.50;99.90
26803;DHT22;14378;51.796;5.808;2023-04-25T01:43:52;7.40;99.90
26803;DHT22;14378;51.796;5.808;2023-04-25T01:45:53;7.40;99.90
26803;DHT22;14378;51.796;5.808;2023-04-25T01:47:55;7.40;99.90
26803;DHT22;14378;51.796;5.808;2023-04-25T01:49:59;7.40;99.90
26803;DHT22;14378;51.796;5.808;2023-04-25T01:52:00;7.30;99.90
26803;DHT22;14378;51.796;5.808;2023-04-25T01:54:01;7.30;99.90
26803;DHT22;14378;51.796;5.808;2023-04-25T01:56:04;7.30;99.90
26803;DHT22;14378;51.796;5.808;2023-04-25T01:58:08;7.30;99.90
26803;DHT22;14378;51.796;5.808;2023-04-25T02:00:29;7.30;99.90
26803;DHT22;14378;51.796;5.808;2023-04-25T02:02:31;7.30;99.90
26803;DHT22;14378;51.796;5.808;2023-04-25T02:04:34;7.30;99.90
26803;DHT22;14378;51.796;5.808;2023-04-25T02:06:36;7.30;99.90
26803;DHT22;14378;51.796;5.808;2023-04-25T02:08:38;7.30;99.90
26803;DHT22;14378;51.796;5.808;2023-04-25T02:10:39;7.30;99.90
26803;DHT22;14378;51.796;5.808;2023-04-25T02:12:54;7.20;99.90
26803;DHT22;14378;51.796;5.808;2023-04-25T02:15:10;7.20;99.90
26803;DHT22;14378;51.796;5.808;2023-04-25T02:17:18;7.10;99.90
26803;DHT22;14378;51.796;5.808;2023-04-25T02:19:19;7.10;99.90
26803;DHT22;14378;51.796;5.808;2023-04-25T02:21:21;7.10;99.90
26803;DHT22;14378;51.796;5.808;2023-04-25T02:23:22;7.10;99.90
26803;DHT22;14378;51.796;5.808;2023-04-25T02:25:24;7.10;99.90
26803;DHT22;14378;51.796;5.808;2023-04-25T02:27:28;7.10;99.90
26803;DHT22;14378;51.796;5.808;2023-04-25T02:29:30;7.10;99.90
26803;DHT22;14378;51.796;5.808;2023-04-25T02:31:34;7.00;99.90
26803;DHT22;14378;51.796;5.808;2023-04-25T02:33:35;7.10;99.90
26803;DHT22;14378;51.796;5.808;2023-04-25T02:35:35;7.10;99.90
26803;DHT22;14378;51.796;5.808;2023-04-25T02:37:39;7.10;99.90
26803;DHT22;14378;51.796;5.808;2023-04-25T02:39:41;7.10;99.90
26803;DHT22;14378;51.796;5.808;2023-04-25T02:41:42;7.10;99.90
26803;DHT22;14378;51.796;5.808;2023-04-25T02:43:43;7.10;99.90
26803;DHT22;14378;51.796;5.808;2023-04-25T02:45:45;7.10;99.90
26803;DHT22;14378;51.796;5.808;2023-04-25T02:47:46;7.10;99.90
26803;DHT22;14378;51.796;5.808;2023-04-25T02:49:48;7.10;99.90
26803;DHT22;14378;51.796;5.808;2023-04-25T02:51:49;7.10;99.90
26803;DHT22;14378;51.796;5.808;2023-04-25T02:53:50;7.00;99.90
26803;DHT22;14378;51.796;5.808;2023-04-25T02:55:51;7.00;99.90
26803;DHT22;14378;51.796;5.808;2023-04-25T02:57:53;7.00;99.90
26803;DHT22;14378;51.796;5.808;2023-04-25T03:00:09;7.00;99.90
26803;DHT22;14378;51.796;5.808;2023-04-25T03:02:12;6.90;99.90
26803;DHT22;14378;51.796;5.808;2023-04-25T03:04:13;6.90;99.90
26803;DHT22;14378;51.796;5.808;2023-04-25T03:06:14;6.90;99.90
26803;DHT22;14378;51.796;5.808;2023-04-25T03:08:19;6.90;99.90
26803;DHT22;14378;51.796;5.808;2023-04-25T03:10:21;6.90;99.90
26803;DHT22;14378;51.796;5.808;2023-04-25T03:12:23;6.80;99.90
26803;DHT22;14378;51.796;5.808;2023-04-25T03:14:25;6.90;99.90
26803;DHT22;14378;51.796;5.808;2023-04-25T03:16:26;6.80;99.90
26803;DHT22;14378;51.796;5.808;2023-04-25T03:18:27;6.80;99.90
26803;DHT22;14378;51.796;5.808;2023-04-25T03:20:29;6.80;99.90
26803;DHT22;14378;51.796;5.808;2023-04-25T03:22:31;6.70;99.90
26803;DHT22;14378;51.796;5.808;2023-04-25T03:24:34;6.60;99.90
26803;DHT22;14378;51.796;5.808;2023-04-25T03:26:36;6.60;99.90
26803;DHT22;14378;51.796;5.808;2023-04-25T03:28:37;6.60;99.90
26803;DHT22;14378;51.796;5.808;2023-04-25T03:30:38;6.60;99.90
26803;DHT22;14378;51.796;5.808;2023-04-25T03:32:40;6.60;99.90
26803;DHT22;14378;51.796;5.808;2023-04-25T03:34:42;6.60;99.90
26803;DHT22;14378;51.796;5.808;2023-04-25T03:36:44;6.50;99.90
26803;DHT22;14378;51.796;5.808;2023-04-25T03:38:48;6.50;99.90
26803;DHT22;14378;51.796;5.808;2023-04-25T03:40:54;6.50;99.90
26803;DHT22;14378;51.796;5.808;2023-04-25T03:43:09;6.50;99.90
26803;DHT22;14378;51.796;5.808;2023-04-25T03:45:12;6.50;99.90
26803;DHT22;14378;51.796;5.808;2023-04-25T03:47:12;6.50;99.90
26803;DHT22;14378;51.796;5.808;2023-04-25T03:49:23;6.50;99.90
26803;DHT22;14378;51.796;5.808;2023-04-25T03:51:35;6.50;99.90
26803;DHT22;14378;51.796;5.808;2023-04-25T03:53:38;6.50;99.90
26803;DHT22;14378;51.796;5.808;2023-04-25T03:55:54;6.50;99.90
26803;DHT22;14378;51.796;5.808;2023-04-25T03:57:55;6.50;99.90
26803;DHT22;14378;51.796;5.808;2023-04-25T03:59:58;6.40;99.90
26803;DHT22;14378;51.796;5.808;2023-04-25T04:02:01;6.50;99.90
26803;DHT22;14378;51.796;5.808;2023-04-25T04:04:03;6.50;99.90
26803;DHT22;14378;51.796;5.808;2023-04-25T04:06:06;6.50;99.90
26803;DHT22;14378;51.796;5.808;2023-04-25T04:08:11;6.50;99.90
26803;DHT22;14378;51.796;5.808;2023-04-25T04:10:13;6.50;99.90
26803;DHT22;14378;51.796;5.808;2023-04-25T04:12:15;6.50;99.90
26803;DHT22;14378;51.796;5.808;2023-04-25T04:14:19;6.50;99.90
26803;DHT22;14378;51.796;5.808;2023-04-25T04:16:21;6.50;99.90
26803;DHT22;14378;51.796;5.808;2023-04-25T04:18:23;6.50;99.90
26803;DHT22;14378;51.796;5.808;2023-04-25T04:20:25;6.50;99.90
26803;DHT22;14378;51.796;5.808;2023-04-25T04:22:26;6.50;99.90
26803;DHT22;14378;51.796;5.808;2023-04-25T04:24:31;6.60;99.90
26803;DHT22;14378;51.796;5.808;2023-04-25T04:26:37;6.60;99.90
26803;DHT22;14378;51.796;5.808;2023-04-25T04:28:58;6.60;99.90
26803;DHT22;14378;51.796;5.808;2023-04-25T04:31:13;6.60;99.90
26803;DHT22;14378;51.796;5.808;2023-04-25T04:33:19;6.60;99.90
26803;DHT22;14378;51.796;5.808;2023-04-25T04:35:24;6.60;99.90
26803;DHT22;14378;51.796;5.808;2023-04-25T04:37:26;6.50;99.90
26803;DHT22;14378;51.796;5.808;2023-04-25T04:39:27;6.50;99.90
26803;DHT22;14378;51.796;5.808;2023-04-25T04:41:37;6.50;99.90
26803;DHT22;14378;51.796;5.808;2023-04-25T04:44:01;6.50;99.90
26803;DHT22;14378;51.796;5.808;2023-04-25T04:46:23;6.50;99.90
26803;DHT22;14378;51.796;5.808;2023-04-25T04:48:44;6.50;99.90
26803;DHT22;14378;51.796;5.808;2023-04-25T04:50:55;6.60;99.90
26803;DHT22;14378;51.796;5.808;2023-04-25T04:53:15;6.50;99.90
26803;DHT22;14378;51.796;5.808;2023-04-25T04:55:35;6.50;99.90
26803;DHT22;14378;51.796;5.808;2023-04-25T04:57:46;6.60;99.90
26803;DHT22;14378;51.796;5.808;2023-04-25T05:00:10;6.60;99.90
26803;DHT22;14378;51.796;5.808;2023-04-25T05:02:41;6.60;99.90
26803;DHT22;14378;51.796;5.808;2023-04-25T05:05:04;6.70;99.90
26803;DHT22;14378;51.796;5.808;2023-04-25T05:07:12;6.70;99.90
26803;DHT22;14378;51.796;5.808;2023-04-25T05:09:45;6.70;99.90
26803;DHT22;14378;51.796;5.808;2023-04-25T05:11:57;6.70;99.90
26803;DHT22;14378;51.796;5.808;2023-04-25T05:14:12;6.80;99.90
26803;DHT22;14378;51.796;5.808;2023-04-25T05:16:48;6.80;99.90
26803;DHT22;14378;51.796;5.808;2023-04-25T05:19:08;6.90;99.90
26803;DHT22;14378;51.796;5.808;2023-04-25T05:21:32;6.90;99.90
26803;DHT22;14378;51.796;5.808;2023-04-25T05:23:55;7.00;99.90
26803;DHT22;14378;51.796;5.808;2023-04-25T05:26:19;7.00;99.90
26803;DHT22;14378;51.796;5.808;2023-04-25T05:28:47;7.10;99.90
26803;DHT22;14378;51.796;5.808;2023-04-25T05:31:07;7.10;99.90
26803;DHT22;14378;51.796;5.808;2023-04-25T05:33:20;7.10;99.90
26803;DHT22;14378;51.796;5.808;2023-04-25T05:35:21;7.20;99.90
26803;DHT22;14378;51.796;5.808;2023-04-25T05:37:23;7.20;99.90
26803;DHT22;14378;51.796;5.808;2023-04-25T05:39:34;7.20;99.90
26803;DHT22;14378;51.796;5.808;2023-04-25T05:41:59;7.20;99.90
26803;DHT22;14378;51.796;5.808;2023-04-25T05:44:19;7.30;99.90
26803;DHT22;14378;51.796;5.808;2023-04-25T05:46:36;7.30;99.90
26803;DHT22;14378;51.796;5.808;2023-04-25T05:49:03;7.40;99.90
26803;DHT22;14378;51.796;5.808;2023-04-25T05:51:27;7.40;99.90
26803;DHT22;14378;51.796;5.808;2023-04-25T05:53:40;7.50;99.90
26803;DHT22;14378;51.796;5.808;2023-04-25T05:55:41;7.50;99.90
26803;DHT22;14378;51.796;5.808;2023-04-25T05:58:15;7.60;99.90
26803;DHT22;14378;51.796;5.808;2023-04-25T06:00:20;7.60;99.90
26803;DHT22;14378;51.796;5.808;2023-04-25T06:02:24;7.60;99.90
26803;DHT22;14378;51.796;5.808;2023-04-25T06:04:28;7.70;99.90
26803;DHT22;14378;51.796;5.808;2023-04-25T06:06:30;7.70;99.90
26803;DHT22;14378;51.796;5.808;2023-04-25T06:08:33;7.80;99.90
26803;DHT22;14378;51.796;5.808;2023-04-25T06:10:34;7.80;99.90
26803;DHT22;14378;51.796;5.808;2023-04-25T06:12:35;7.80;99.90
26803;DHT22;14378;51.796;5.808;2023-04-25T06:14:38;7.90;99.90
26803;DHT22;14378;51.796;5.808;2023-04-25T06:16:39;7.90;99.90
26803;DHT22;14378;51.796;5.808;2023-04-25T06:18:40;7.90;99.90
26803;DHT22;14378;51.796;5.808;2023-04-25T06:20:41;8.00;99.90
26803;DHT22;14378;51.796;5.808;2023-04-25T06:22:43;8.00;99.90
26803;DHT22;14378;51.796;5.808;2023-04-25T06:24:44;8.00;99.90
26803;DHT22;14378;51.796;5.808;2023-04-25T06:26:47;8.00;99.90
26803;DHT22;14378;51.796;5.808;2023-04-25T06:28:48;8.10;99.90
26803;DHT22;14378;51.796;5.808;2023-04-25T06:30:53;8.10;99.90
26803;DHT22;14378;51.796;5.808;2023-04-25T06:32:54;8.10;99.90
26803;DHT22;14378;51.796;5.808;2023-04-25T06:34:56;8.20;99.90
26803;DHT22;14378;51.796;5.808;2023-04-25T06:36:58;8.20;99.90
26803;DHT22;14378;51.796;5.808;2023-04-25T06:39:02;8.20;99.90
26803;DHT22;14378;51.796;5.808;2023-04-25T06:41:05;8.30;99.90
26803;DHT22;14378;51.796;5.808;2023-04-25T06:43:10;8.30;99.90
26803;DHT22;14378;51.796;5.808;2023-04-25T06:45:30;8.30;99.90
26803;DHT22;14378;51.796;5.808;2023-04-25T06:47:33;8.40;99.90
26803;DHT22;14378;51.796;5.808;2023-04-25T06:49:36;8.50;99.90
26803;DHT22;14378;51.796;5.808;2023-04-25T06:51:38;8.50;99.90
26803;DHT22;14378;51.796;5.808;2023-04-25T06:53:40;8.60;99.90
26803;DHT22;14378;51.796;5.808;2023-04-25T06:55:47;8.70;99.90
26803;DHT22;14378;51.796;5.808;2023-04-25T06:57:52;8.70;99.90
26803;DHT22;14378;51.796;5.808;2023-04-25T07:00:15;8.80;99.90
26803;DHT22;14378;51.796;5.808;2023-04-25T07:02:27;8.90;99.90
26803;DHT22;14378;51.796;5.808;2023-04-25T07:04:29;8.90;99.90
26803;DHT22;14378;51.796;5.808;2023-04-25T07:06:52;8.90;99.90
26803;DHT22;14378;51.796;5.808;2023-04-25T07:09:00;9.00;99.90
26803;DHT22;14378;51.796;5.808;2023-04-25T07:11:01;9.10;99.90
26803;DHT22;14378;51.796;5.808;2023-04-25T07:13:03;9.20;99.90
26803;DHT22;14378;51.796;5.808;2023-04-25T07:15:06;9.20;99.90
26803;DHT22;14378;51.796;5.808;2023-04-25T07:17:15;9.30;99.90
26803;DHT22;14378;51.796;5.808;2023-04-25T07:19:18;9.30;99.90
26803;DHT22;14378;51.796;5.808;2023-04-25T07:21:23;9.40;99.90
26803;DHT22;14378;51.796;5.808;2023-04-25T07:23:26;9.40;99.90
26803;DHT22;14378;51.796;5.808;2023-04-25T07:25:27;9.50;99.90
26803;DHT22;14378;51.796;5.808;2023-04-25T07:27:30;9.60;99.90
26803;DHT22;14378;51.796;5.808;2023-04-25T07:29:49;9.60;99.90
26803;DHT22;14378;51.796;5.808;2023-04-25T07:31:50;9.70;99.90
26803;DHT22;14378;51.796;5.808;2023-04-25T07:33:56;9.70;99.90
26803;DHT22;14378;51.796;5.808;2023-04-25T07:35:57;9.80;99.90
26803;DHT22;14378;51.796;5.808;2023-04-25T07:37:58;9.80;99.90
26803;DHT22;14378;51.796;5.808;2023-04-25T07:39:59;9.90;99.90
26803;DHT22;14378;51.796;5.808;2023-04-25T07:42:01;9.90;99.90
26803;DHT22;14378;51.796;5.808;2023-04-25T07:44:09;10.00;99.90
26803;DHT22;14378;51.796;5.808;2023-04-25T07:46:12;10.10;99.90
26803;DHT22;14378;51.796;5.808;2023-04-25T07:48:17;10.20;99.90
26803;DHT22;14378;51.796;5.808;2023-04-25T07:50:22;10.30;99.90
26803;DHT22;14378;51.796;5.808;2023-04-25T07:52:26;10.40;99.90
26803;DHT22;14378;51.796;5.808;2023-04-25T07:54:35;10.50;99.90
26803;DHT22;14378;51.796;5.808;2023-04-25T07:56:44;10.60;99.90
26803;DHT22;14378;51.796;5.808;2023-04-25T07:58:51;10.70;99.90
26803;DHT22;14378;51.796;5.808;2023-04-25T08:00:57;10.70;99.90
26803;DHT22;14378;51.796;5.808;2023-04-25T08:03:24;10.80;99.90
26803;DHT22;14378;51.796;5.808;2023-04-25T08:05:26;10.90;99.90
26803;DHT22;14378;51.796;5.808;2023-04-25T08:07:34;10.90;99.90
26803;DHT22;14378;51.796;5.808;2023-04-25T08:09:39;11.00;99.90
26803;DHT22;14378;51.796;5.808;2023-04-25T08:11:45;11.00;99.90
26803;DHT22;14378;51.796;5.808;2023-04-25T08:13:49;11.00;99.90
26803;DHT22;14378;51.796;5.808;2023-04-25T08:15:51;11.10;99.90
26803;DHT22;14378;51.796;5.808;2023-04-25T08:17:54;11.20;99.90
26803;DHT22;14378;51.796;5.808;2023-04-25T08:19:55;11.30;99.90
26803;DHT22;14378;51.796;5.808;2023-04-25T08:22:01;11.40;99.90
26803;DHT22;14378;51.796;5.808;2023-04-25T08:24:11;11.50;99.90
26803;DHT22;14378;51.796;5.808;2023-04-25T08:26:14;11.60;99.90
26803;DHT22;14378;51.796;5.808;2023-04-25T08:28:20;11.80;99.90
26803;DHT22;14378;51.796;5.808;2023-04-25T08:30:23;11.80;99.90
26803;DHT22;14378;51.796;5.808;2023-04-25T08:32:25;12.00;99.90
26803;DHT22;14378;51.796;5.808;2023-04-25T08:34:44;12.00;99.90
26803;DHT22;14378;51.796;5.808;2023-04-25T08:36:45;12.00;99.90
26803;DHT22;14378;51.796;5.808;2023-04-25T08:39:02;12.00;99.90
26803;DHT22;14378;51.796;5.808;2023-04-25T08:41:05;12.00;99.90
26803;DHT22;14378;51.796;5.808;2023-04-25T08:43:07;11.90;99.90
26803;DHT22;14378;51.796;5.808;2023-04-25T08:45:13;12.00;99.90
26803;DHT22;14378;51.796;5.808;2023-04-25T08:47:21;12.10;99.90
26803;DHT22;14378;51.796;5.808;2023-04-25T08:49:26;12.20;99.90
26803;DHT22;14378;51.796;5.808;2023-04-25T08:51:31;12.30;99.90
26803;DHT22;14378;51.796;5.808;2023-04-25T08:53:37;12.40;99.90
26803;DHT22;14378;51.796;5.808;2023-04-25T08:55:43;12.60;99.90
26803;DHT22;14378;51.796;5.808;2023-04-25T08:57:47;12.70;99.90
26803;DHT22;14378;51.796;5.808;2023-04-25T08:59:53;12.80;99.90
26803;DHT22;14378;51.796;5.808;2023-04-25T09:02:12;12.90;99.90
26803;DHT22;14378;51.796;5.808;2023-04-25T09:04:21;13.00;99.90
26803;DHT22;14378;51.796;5.808;2023-04-25T09:06:23;13.00;99.90
26803;DHT22;14378;51.796;5.808;2023-04-25T09:08:27;13.00;99.90
26803;DHT22;14378;51.796;5.808;2023-04-25T09:10:28;13.00;99.90
26803;DHT22;14378;51.796;5.808;2023-04-25T09:12:38;13.10;99.90
26803;DHT22;14378;51.796;5.808;2023-04-25T09:15:03;13.10;99.90
26803;DHT22;14378;51.796;5.808;2023-04-25T09:17:27;13.10;99.90
26803;DHT22;14378;51.796;5.808;2023-04-25T09:19:39;13.10;99.90
26803;DHT22;14378;51.796;5.808;2023-04-25T09:21:55;13.10;99.90
26803;DHT22;14378;51.796;5.808;2023-04-25T09:23:56;13.10;99.90
26803;DHT22;14378;51.796;5.808;2023-04-25T09:26:18;13.00;99.90
26803;DHT22;14378;51.796;5.808;2023-04-25T09:28:26;13.10;99.90
26803;DHT22;14378;51.796;5.808;2023-04-25T09:30:30;13.10;99.90
26803;DHT22;14378;51.796;5.808;2023-04-25T09:32:57;13.20;99.90
26803;DHT22;14378;51.796;5.808;2023-04-25T09:35:05;13.40;99.90
26803;DHT22;14378;51.796;5.808;2023-04-25T09:37:11;13.50;99.90
26803;DHT22;14378;51.796;5.808;2023-04-25T09:39:39;13.50;99.90
26803;DHT22;14378;51.796;5.808;2023-04-25T09:41:53;13.50;99.90
26803;DHT22;14378;51.796;5.808;2023-04-25T09:43:57;13.60;99.90
26803;DHT22;14378;51.796;5.808;2023-04-25T09:46:08;13.70;99.90
26803;DHT22;14378;51.796;5.808;2023-04-25T09:48:32;13.80;99.90
26803;DHT22;14378;51.796;5.808;2023-04-25T09:50:37;13.90;99.90
26803;DHT22;14378;51.796;5.808;2023-04-25T09:52:44;13.80;99.90
26803;DHT22;14378;51.796;5.808;2023-04-25T09:54:57;13.80;99.90
26803;DHT22;14378;51.796;5.808;2023-04-25T09:57:23;13.70;99.90
26803;DHT22;14378;51.796;5.808;2023-04-25T09:59:31;13.70;99.90
26803;DHT22;14378;51.796;5.808;2023-04-25T10:01:38;13.70;99.90
26803;DHT22;14378;51.796;5.808;2023-04-25T10:03:48;13.80;99.90
26803;DHT22;14378;51.796;5.808;2023-04-25T10:06:16;13.80;99.90
26803;DHT22;14378;51.796;5.808;2023-04-25T10:08:19;13.70;99.90
26803;DHT22;14378;51.796;5.808;2023-04-25T10:10:21;13.80;99.90
26803;DHT22;14378;51.796;5.808;2023-04-25T10:12:26;13.80;99.90
26803;DHT22;14378;51.796;5.808;2023-04-25T10:14:29;13.70;99.90
26803;DHT22;14378;51.796;5.808;2023-04-25T10:16:31;13.70;99.90
26803;DHT22;14378;51.796;5.808;2023-04-25T10:18:33;13.70;99.90
26803;DHT22;14378;51.796;5.808;2023-04-25T10:20:34;13.50;99.90
26803;DHT22;14378;51.796;5.808;2023-04-25T10:22:38;13.50;99.90
26803;DHT22;14378;51.796;5.808;2023-04-25T10:24:42;13.40;99.90
26803;DHT22;14378;51.796;5.808;2023-04-25T10:26:43;13.30;99.90
26803;DHT22;14378;51.796;5.808;2023-04-25T10:29:01;13.30;99.90
26803;DHT22;14378;51.796;5.808;2023-04-25T10:31:08;13.30;99.90
26803;DHT22;14378;51.796;5.808;2023-04-25T10:33:17;13.30;99.90
26803;DHT22;14378;51.796;5.808;2023-04-25T10:35:26;13.30;99.90
26803;DHT22;14378;51.796;5.808;2023-04-25T10:37:30;13.30;99.90
26803;DHT22;14378;51.796;5.808;2023-04-25T10:39:32;13.50;99.90
26803;DHT22;14378;51.796;5.808;2023-04-25T10:41:46;13.70;99.90
26803;DHT22;14378;51.796;5.808;2023-04-25T10:43:49;13.90;99.90
26803;DHT22;14378;51.796;5.808;2023-04-25T10:46:00;14.10;99.90
26803;DHT22;14378;51.796;5.808;2023-04-25T10:48:01;14.30;99.90
26803;DHT22;14378;51.796;5.808;2023-04-25T10:50:07;14.40;99.90
26803;DHT22;14378;51.796;5.808;2023-04-25T10:52:18;14.60;99.90
26803;DHT22;14378;51.796;5.808;2023-04-25T10:54:22;14.90;99.90
26803;DHT22;14378;51.796;5.808;2023-04-25T10:56:32;15.30;99.90
26803;DHT22;14378;51.796;5.808;2023-04-25T10:58:36;15.60;99.90
26803;DHT22;14378;51.796;5.808;2023-04-25T11:00:42;16.00;99.90
26803;DHT22;14378;51.796;5.808;2023-04-25T11:02:46;16.30;99.90
26803;DHT22;14378;51.796;5.808;2023-04-25T11:04:51;16.50;99.90
26803;DHT22;14378;51.796;5.808;2023-04-25T11:07:10;16.90;99.90
26803;DHT22;14378;51.796;5.808;2023-04-25T11:09:14;17.20;99.90
26803;DHT22;14378;51.796;5.808;2023-04-25T11:11:19;17.40;99.90
26803;DHT22;14378;51.796;5.808;2023-04-25T11:13:20;17.50;99.90
26803;DHT22;14378;51.796;5.808;2023-04-25T11:15:21;17.70;99.90
26803;DHT22;14378;51.796;5.808;2023-04-25T11:17:25;17.60;99.40
26803;DHT22;14378;51.796;5.808;2023-04-25T11:19:29;17.40;98.90
26803;DHT22;14378;51.796;5.808;2023-04-25T11:21:31;17.20;98.20
26803;DHT22;14378;51.796;5.808;2023-04-25T11:23:32;17.00;98.00
26803;DHT22;14378;51.796;5.808;2023-04-25T11:25:33;16.90;97.70
26803;DHT22;14378;51.796;5.808;2023-04-25T11:27:50;16.70;97.70
26803;DHT22;14378;51.796;5.808;2023-04-25T11:29:51;16.60;98.50
26803;DHT22;14378;51.796;5.808;2023-04-25T11:31:54;16.50;97.80
26803;DHT22;14378;51.796;5.808;2023-04-25T11:34:01;16.40;98.00
26803;DHT22;14378;51.796;5.808;2023-04-25T11:36:03;16.30;97.90
26803;DHT22;14378;51.796;5.808;2023-04-25T11:38:04;16.30;98.30
26803;DHT22;14378;51.796;5.808;2023-04-25T11:40:06;16.60;99.90
26803;DHT22;14378;51.796;5.808;2023-04-25T11:42:08;16.70;99.90
26803;DHT22;14378;51.796;5.808;2023-04-25T11:44:09;17.10;99.70
26803;DHT22;14378;51.796;5.808;2023-04-25T11:46:11;17.20;99.80
26803;DHT22;14378;51.796;5.808;2023-04-25T11:48:12;17.20;98.70
26803;DHT22;14378;51.796;5.808;2023-04-25T11:50:13;17.10;98.20
26803;DHT22;14378;51.796;5.808;2023-04-25T11:52:15;17.10;98.30
26803;DHT22;14378;51.796;5.808;2023-04-25T11:54:20;17.10;99.00
26803;DHT22;14378;51.796;5.808;2023-04-25T11:56:21;17.30;98.50
26803;DHT22;14378;51.796;5.808;2023-04-25T11:58:23;17.50;98.40
26803;DHT22;14378;51.796;5.808;2023-04-25T12:00:31;17.50;98.00
26803;DHT22;14378;51.796;5.808;2023-04-25T12:02:35;17.60;96.80
26803;DHT22;14378;51.796;5.808;2023-04-25T12:04:37;17.50;96.90
26803;DHT22;14378;51.796;5.808;2023-04-25T12:06:39;17.40;96.30
26803;DHT22;14378;51.796;5.808;2023-04-25T12:09:02;17.40;96.80
26803;DHT22;14378;51.796;5.808;2023-04-25T12:11:19;17.50;97.30
26803;DHT22;14378;51.796;5.808;2023-04-25T12:13:31;17.40;97.20
26803;DHT22;14378;51.796;5.808;2023-04-25T12:15:35;17.40;97.10
26803;DHT22;14378;51.796;5.808;2023-04-25T12:17:48;17.40;96.80
26803;DHT22;14378;51.796;5.808;2023-04-25T12:19:49;17.50;96.90
26803;DHT22;14378;51.796;5.808;2023-04-25T12:21:52;17.80;98.00
26803;DHT22;14378;51.796;5.808;2023-04-25T12:23:53;18.00;97.60
26803;DHT22;14378;51.796;5.808;2023-04-25T12:25:55;18.10;97.30
26803;DHT22;14378;51.796;5.808;2023-04-25T12:28:19;18.00;96.60
26803;DHT22;14378;51.796;5.808;2023-04-25T12:30:20;17.90;96.00
26803;DHT22;14378;51.796;5.808;2023-04-25T12:32:21;17.70;95.70
26803;DHT22;14378;51.796;5.808;2023-04-25T12:34:23;17.50;95.70
26803;DHT22;14378;51.796;5.808;2023-04-25T12:36:27;17.30;96.10
26803;DHT22;14378;51.796;5.808;2023-04-25T12:38:33;17.10;96.00
26803;DHT22;14378;51.796;5.808;2023-04-25T12:40:36;17.00;95.80
26803;DHT22;14378;51.796;5.808;2023-04-25T12:42:40;17.10;96.60
26803;DHT22;14378;51.796;5.808;2023-04-25T12:44:41;17.40;99.50
26803;DHT22;14378;51.796;5.808;2023-04-25T12:46:43;17.50;98.20
26803;DHT22;14378;51.796;5.808;2023-04-25T12:48:44;17.50;97.70
26803;DHT22;14378;51.796;5.808;2023-04-25T12:50:45;17.40;96.10
26803;DHT22;14378;51.796;5.808;2023-04-25T12:52:49;17.20;96.50
26803;DHT22;14378;51.796;5.808;2023-04-25T12:54:51;17.20;96.50
26803;DHT22;14378;51.796;5.808;2023-04-25T12:56:52;17.20;97.10
26803;DHT22;14378;51.796;5.808;2023-04-25T12:58:56;17.10;97.20
26803;DHT22;14378;51.796;5.808;2023-04-25T13:00:57;17.10;96.40
26803;DHT22;14378;51.796;5.808;2023-04-25T13:02:58;17.20;98.00
26803;DHT22;14378;51.796;5.808;2023-04-25T13:05:00;17.40;98.50
26803;DHT22;14378;51.796;5.808;2023-04-25T13:07:01;17.60;98.20
26803;DHT22;14378;51.796;5.808;2023-04-25T13:09:02;17.70;97.40
26803;DHT22;14378;51.796;5.808;2023-04-25T13:11:05;17.70;96.00
26803;DHT22;14378;51.796;5.808;2023-04-25T13:13:06;17.60;95.90
26803;DHT22;14378;51.796;5.808;2023-04-25T13:15:08;17.40;94.60
26803;DHT22;14378;51.796;5.808;2023-04-25T13:17:10;17.40;93.60
26803;DHT22;14378;51.796;5.808;2023-04-25T13:19:12;17.40;93.80
26803;DHT22;14378;51.796;5.808;2023-04-25T13:21:13;17.50;94.60
26803;DHT22;14378;51.796;5.808;2023-04-25T13:23:14;17.70;94.10
26803;DHT22;14378;51.796;5.808;2023-04-25T13:25:15;17.90;95.20
26803;DHT22;14378;51.796;5.808;2023-04-25T13:27:18;18.10;95.60
26803;DHT22;14378;51.796;5.808;2023-04-25T13:29:19;18.40;95.00